Time;durP1;ratioP1;P1;durP2;ratioP2;P2;SDS_P1;SDS_P2;PMS_P1;PMS_P2;Temp;Humidity;BMP_temperature;BMP_pressure;BME280_temperature;BME280_humidity;BME280_pressure;Samples;Min_cycle;Max_cycle;Signal;HPM_P1;HPM_P2
2023/12/22 00:01:35;;;;;;;13.57;4.33;;;;;;;;;;10298883;28;20042;-80
2023/12/22 00:06:36;;;;;;;10.93;3.53;;;;;;;;;;10293944;28;20032;-80
2023/12/22 00:11:37;;;;;;;11.87;3.27;;;;;;;;;;10299324;28;20038;-81
2023/12/22 00:16:38;;;;;;;11.20;3.30;;;;;;;;;;10296864;28;20047;-79
2023/12/22 00:21:40;;;;;;;10.53;2.80;;;;;;;;;;10293473;28;20034;-80
2023/12/22 00:26:47;;;;;;;9.53;2.60;;;;;;;;;;10289019;28;20027;-81
2023/12/22 00:31:48;;;;;;;9.07;2.53;;;;;;;;;;10293443;28;20042;-79
2023/12/22 00:36:49;;;;;;;13.43;2.90;;;;;;;;;;10294624;28;20034;-80
2023/12/22 00:41:50;;;;;;;7.20;2.70;;;;;;;;;;10271072;28;20041;-80
2023/12/22 00:46:51;;;;;;;8.03;1.80;;;;;;;;;;10298543;28;20554;-79
2023/12/22 00:51:52;;;;;;;12.70;2.50;;;;;;;;;;10285463;28;20458;-79
2023/12/22 00:56:53;;;;;;;10.27;3.20;;;;;;;;;;10285272;28;20049;-83
2023/12/22 01:01:54;;;;;;;13.73;3.10;;;;;;;;;;10300895;28;20048;-79
2023/12/22 01:06:55;;;;;;;10.70;2.60;;;;;;;;;;10300159;28;20117;-79
2023/12/22 01:11:56;;;;;;;7.57;2.77;;;;;;;;;;10287397;28;20097;-81
2023/12/22 01:16:59;;;;;;;6.83;2.40;;;;;;;;;;10303938;28;20434;-81
2023/12/22 01:22:00;;;;;;;13.20;3.40;;;;;;;;;;10290776;28;20069;-79
2023/12/22 01:27:01;;;;;;;12.83;2.87;;;;;;;;;;10283043;28;20393;-82
2023/12/22 01:32:02;;;;;;;9.97;2.30;;;;;;;;;;10287757;28;20026;-79
2023/12/22 01:37:03;;;;;;;9.80;3.60;;;;;;;;;;10290345;28;20042;-79
2023/12/22 01:42:04;;;;;;;12.27;3.67;;;;;;;;;;10288875;28;20387;-80
2023/12/22 01:47:05;;;;;;;11.33;2.90;;;;;;;;;;10300523;28;20380;-80
2023/12/22 01:52:06;;;;;;;10.53;3.07;;;;;;;;;;10272036;28;20074;-80
2023/12/22 01:57:08;;;;;;;13.67;4.47;;;;;;;;;;10314171;28;20062;-79
2023/12/22 02:02:09;;;;;;;13.87;5.17;;;;;;;;;;10294563;28;20490;-79
2023/12/22 02:07:11;;;;;;;13.10;3.30;;;;;;;;;;10285232;28;20030;-79
2023/12/22 02:12:12;;;;;;;10.60;2.93;;;;;;;;;;10269923;28;20042;-79
2023/12/22 02:17:30;;;;;;;7.33;2.93;;;;;;;;;;10283999;28;20074;-80
2023/12/22 02:22:31;;;;;;;5.97;2.30;;;;;;;;;;10290574;28;20042;-83
2023/12/22 02:27:35;;;;;;;12.30;4.00;;;;;;;;;;10307152;28;20084;-79
2023/12/22 02:32:44;;;;;;;12.20;4.60;;;;;;;;;;10292838;28;20160;-79
2023/12/22 02:37:47;;;;;;;9.40;2.97;;;;;;;;;;10299543;28;20047;-81
2023/12/22 02:42:48;;;;;;;8.67;2.83;;;;;;;;;;10300458;28;20030;-79
2023/12/22 02:47:49;;;;;;;9.43;3.60;;;;;;;;;;10302026;28;20479;-83
2023/12/22 02:52:50;;;;;;;8.13;2.70;;;;;;;;;;10297155;28;20055;-79
2023/12/22 02:57:51;;;;;;;9.77;2.80;;;;;;;;;;10293876;28;20038;-79
2023/12/22 03:02:52;;;;;;;10.53;3.00;;;;;;;;;;10299378;28;20031;-80
2023/12/22 03:07:53;;;;;;;11.20;2.77;;;;;;;;;;10295100;28;20043;-80
2023/12/22 03:12:54;;;;;;;6.67;2.67;;;;;;;;;;10289019;28;20045;-81
2023/12/22 03:17:55;;;;;;;9.53;2.30;;;;;;;;;;10297241;28;20042;-78
2023/12/22 03:22:56;;;;;;;8.00;2.20;;;;;;;;;;10290089;28;20620;-79
2023/12/22 03:27:57;;;;;;;8.97;2.83;;;;;;;;;;10277355;28;20410;-81
2023/12/22 03:32:58;;;;;;;11.13;2.43;;;;;;;;;;10288999;28;20030;-82
2023/12/22 03:37:59;;;;;;;8.47;2.90;;;;;;;;;;10288201;28;20045;-83
2023/12/22 03:43:00;;;;;;;10.00;2.47;;;;;;;;;;10287919;28;20031;-79
2023/12/22 03:48:01;;;;;;;8.50;2.30;;;;;;;;;;10270180;28;20039;-79
2023/12/22 03:53:02;;;;;;;6.53;2.70;;;;;;;;;;10292485;28;20054;-80
2023/12/22 03:58:04;;;;;;;11.40;2.87;;;;;;;;;;10287673;28;20561;-79
2023/12/22 04:03:05;;;;;;;10.70;2.37;;;;;;;;;;10287895;28;20078;-80
2023/12/22 04:08:06;;;;;;;10.90;3.40;;;;;;;;;;10290912;28;20101;-83
2023/12/22 04:13:07;;;;;;;11.80;3.17;;;;;;;;;;10291230;28;20450;-79
2023/12/22 04:18:08;;;;;;;12.67;3.43;;;;;;;;;;10296117;28;20047;-79
2023/12/22 04:23:09;;;;;;;22.13;4.97;;;;;;;;;;10289447;28;20041;-79
2023/12/22 04:28:10;;;;;;;16.53;3.43;;;;;;;;;;10289614;28;20479;-79
2023/12/22 04:33:11;;;;;;;6.73;1.67;;;;;;;;;;10287091;28;20767;-79
2023/12/22 04:38:12;;;;;;;7.60;1.20;;;;;;;;;;10279321;28;20069;-81
2023/12/22 04:43:13;;;;;;;6.07;2.33;;;;;;;;;;10284404;28;20033;-81
2023/12/22 04:48:14;;;;;;;8.47;1.70;;;;;;;;;;10286674;28;20364;-81
2023/12/22 04:53:22;;;;;;;8.37;1.80;;;;;;;;;;10285462;28;20081;-77
2023/12/22 04:58:23;;;;;;;6.27;1.70;;;;;;;;;;10267496;28;20043;-80
2023/12/22 05:03:24;;;;;;;4.90;1.87;;;;;;;;;;10285614;28;20557;-80
2023/12/22 05:08:32;;;;;;;5.70;1.60;;;;;;;;;;10293548;28;20046;-80
2023/12/22 05:13:33;;;;;;;8.97;2.30;;;;;;;;;;10271189;28;20383;-79
2023/12/22 05:18:34;;;;;;;19.57;6.70;;;;;;;;;;10286097;28;20043;-81
2023/12/22 05:23:35;;;;;;;20.43;7.10;;;;;;;;;;10285107;28;20042;-79
2023/12/22 05:28:36;;;;;;;18.33;5.17;;;;;;;;;;10284493;28;20491;-79
2023/12/22 05:33:37;;;;;;;16.77;5.67;;;;;;;;;;10267906;28;20050;-79
2023/12/22 05:38:38;;;;;;;14.60;5.40;;;;;;;;;;10283907;28;20039;-79
2023/12/22 05:43:39;;;;;;;25.87;7.43;;;;;;;;;;10258085;28;20027;-82
2023/12/22 05:48:40;;;;;;;21.13;6.43;;;;;;;;;;10282462;28;20034;-79
2023/12/22 05:53:41;;;;;;;20.93;8.93;;;;;;;;;;10284555;28;20070;-79
2023/12/22 05:58:42;;;;;;;16.97;5.90;;;;;;;;;;10283432;28;20471;-79
2023/12/22 06:03:43;;;;;;;12.90;4.70;;;;;;;;;;10283083;28;20109;-79
2023/12/22 06:08:44;;;;;;;19.13;6.07;;;;;;;;;;10288433;28;20026;-82
2023/12/22 06:13:45;;;;;;;18.33;5.50;;;;;;;;;;10292369;28;20101;-79
2023/12/22 06:18:46;;;;;;;19.53;4.97;;;;;;;;;;10291415;28;20694;-79
2023/12/22 06:23:47;;;;;;;19.30;5.80;;;;;;;;;;10291306;28;20123;-79
2023/12/22 06:28:48;;;;;;;16.00;6.13;;;;;;;;;;10286587;28;20031;-80
2023/12/22 06:33:50;;;;;;;12.57;3.97;;;;;;;;;;10277667;28;20367;-79
2023/12/22 06:38:51;;;;;;;15.73;3.80;;;;;;;;;;10283580;28;20766;-79
2023/12/22 06:43:52;;;;;;;21.00;5.97;;;;;;;;;;10290197;28;20038;-79
2023/12/22 06:48:54;;;;;;;22.20;7.07;;;;;;;;;;10290571;28;20023;-80
2023/12/22 06:53:55;;;;;;;27.53;8.90;;;;;;;;;;10289551;28;20113;-79
2023/12/22 06:58:57;;;;;;;21.90;5.87;;;;;;;;;;10289905;28;20368;-79
2023/12/22 07:04:01;;;;;;;15.37;4.30;;;;;;;;;;10287004;28;20039;-79
2023/12/22 07:09:15;;;;;;;14.77;5.03;;;;;;;;;;10282134;28;20030;-81
2023/12/22 07:14:16;;;;;;;12.87;5.10;;;;;;;;;;10288736;28;20386;-80
2023/12/22 07:19:17;;;;;;;16.20;5.00;;;;;;;;;;10290789;28;20046;-80
2023/12/22 07:24:19;;;;;;;18.17;4.97;;;;;;;;;;10284313;28;20114;-82
2023/12/22 07:29:20;;;;;;;27.63;8.37;;;;;;;;;;10281085;28;20033;-81
2023/12/22 07:34:22;;;;;;;26.83;8.37;;;;;;;;;;10278310;28;20427;-79
2023/12/22 07:39:23;;;;;;;27.43;6.83;;;;;;;;;;10286158;28;20092;-80
2023/12/22 07:44:24;;;;;;;20.43;8.23;;;;;;;;;;10269642;28;20442;-79
2023/12/22 07:49:25;;;;;;;17.90;7.60;;;;;;;;;;10281102;28;20039;-80
2023/12/22 07:54:26;;;;;;;23.73;9.90;;;;;;;;;;10286729;28;20063;-79
2023/12/22 07:59:27;;;;;;;23.37;9.70;;;;;;;;;;10280597;28;20450;-78
2023/12/22 08:04:28;;;;;;;28.47;10.70;;;;;;;;;;10287470;28;20034;-81
2023/12/22 08:09:29;;;;;;;28.90;11.60;;;;;;;;;;10287472;28;20561;-80
2023/12/22 08:14:30;;;;;;;32.67;13.00;;;;;;;;;;10287887;28;20109;-80
2023/12/22 08:19:32;;;;;;;29.50;12.17;;;;;;;;;;10285010;28;20490;-80
2023/12/22 08:24:33;;;;;;;31.10;11.00;;;;;;;;;;10275776;28;20047;-80
2023/12/22 08:29:34;;;;;;;31.57;12.43;;;;;;;;;;10282604;28;20027;-79
2023/12/22 08:34:41;;;;;;;34.50;13.60;;;;;;;;;;10285914;28;20039;-79
2023/12/22 08:39:42;;;;;;;33.10;11.13;;;;;;;;;;10274060;28;20042;-79
2023/12/22 08:44:43;;;;;;;18.00;8.20;;;;;;;;;;10285434;28;20043;-80
2023/12/22 08:49:44;;;;;;;19.77;7.87;;;;;;;;;;10285761;28;20027;-78
2023/12/22 08:54:45;;;;;;;16.77;5.77;;;;;;;;;;10280011;28;20577;-81
2023/12/22 08:59:46;;;;;;;17.80;6.37;;;;;;;;;;10282158;28;20043;-82
2023/12/22 09:04:47;;;;;;;18.30;6.27;;;;;;;;;;10284157;28;20092;-81
2023/12/22 09:09:48;;;;;;;22.10;7.00;;;;;;;;;;10285368;28;20430;-79
2023/12/22 09:14:50;;;;;;;22.83;7.23;;;;;;;;;;10277858;28;20034;-80
2023/12/22 09:19:51;;;;;;;20.70;7.07;;;;;;;;;;10284921;28;20051;-80
2023/12/22 09:24:59;;;;;;;29.30;10.00;;;;;;;;;;10284637;28;20046;-79
2023/12/22 09:30:00;;;;;;;16.60;6.20;;;;;;;;;;10285344;28;20027;-79
2023/12/22 09:35:01;;;;;;;17.80;5.70;;;;;;;;;;10284744;28;20039;-80
2023/12/22 09:40:02;;;;;;;13.23;5.70;;;;;;;;;;10285008;28;20043;-81
2023/12/22 09:45:04;;;;;;;15.67;6.00;;;;;;;;;;10285070;28;20023;-81
2023/12/22 09:50:06;;;;;;;13.30;4.90;;;;;;;;;;10284391;28;20113;-82
2023/12/22 09:55:08;;;;;;;12.60;5.10;;;;;;;;;;10271249;28;20417;-82
2023/12/22 10:00:12;;;;;;;11.93;5.37;;;;;;;;;;10284718;28;20513;-81
2023/12/22 10:05:13;;;;;;;15.37;7.47;;;;;;;;;;10284700;28;20031;-81
2023/12/22 10:10:14;;;;;;;19.33;8.33;;;;;;;;;;10284905;28;20117;-82
2023/12/22 10:15:16;;;;;;;18.03;7.17;;;;;;;;;;10267739;28;20027;-81
2023/12/22 10:20:17;;;;;;;15.33;6.10;;;;;;;;;;10285246;28;20050;-80
2023/12/22 10:25:22;;;;;;;16.37;4.93;;;;;;;;;;10283574;28;20039;-83
2023/12/22 10:30:24;;;;;;;13.73;4.35;;;;;;;;;;10284406;28;20038;-82
2023/12/22 10:35:25;;;;;;;25.53;8.67;;;;;;;;;;10284040;28;20129;-81
2023/12/22 10:40:26;;;;;;;13.10;5.83;;;;;;;;;;10284625;28;20129;-83
2023/12/22 10:45:29;;;;;;;16.80;6.50;;;;;;;;;;10284053;28;20035;-81
2023/12/22 10:50:30;;;;;;;13.83;4.63;;;;;;;;;;10289061;28;20046;-83
2023/12/22 10:55:38;;;;;;;14.13;3.73;;;;;;;;;;10278304;28;20565;-80
2023/12/22 11:00:40;;;;;;;10.53;4.63;;;;;;;;;;10283097;28;20042;-78
2023/12/22 11:05:44;;;;;;;19.07;7.87;;;;;;;;;;10279041;28;20479;-78
2023/12/22 11:10:46;;;;;;;12.97;5.73;;;;;;;;;;10274199;28;20019;-78
2023/12/22 11:15:47;;;;;;;16.20;7.33;;;;;;;;;;10289839;28;20031;-80
2023/12/22 11:20:48;;;;;;;31.83;11.90;;;;;;;;;;10289484;28;20045;-78
2023/12/22 11:25:53;;;;;;;36.83;13.37;;;;;;;;;;10274739;28;20368;-78
2023/12/22 11:30:54;;;;;;;27.77;10.10;;;;;;;;;;10286201;28;20090;-78
2023/12/22 11:35:57;;;;;;;26.40;10.63;;;;;;;;;;10288854;28;20494;-79
2023/12/22 11:40:58;;;;;;;18.43;8.30;;;;;;;;;;10288307;28;20047;-77
2023/12/22 11:46:05;;;;;;;11.57;4.77;;;;;;;;;;10272902;28;20495;-77
2023/12/22 11:51:14;;;;;;;13.50;5.53;;;;;;;;;;10284528;28;20031;-80
2023/12/22 11:56:22;;;;;;;11.03;5.23;;;;;;;;;;10278482;28;20082;-78
2023/12/22 12:01:24;;;;;;;14.27;5.60;;;;;;;;;;10272977;28;20042;-78
2023/12/22 12:06:30;;;;;;;15.00;6.77;;;;;;;;;;10270842;28;20035;-81
2023/12/22 12:11:50;;;;;;;17.17;6.97;;;;;;;;;;10289034;28;20026;-79
2023/12/22 12:16:55;;;;;;;16.93;7.93;;;;;;;;;;10292019;28;20041;-79
2023/12/22 12:21:56;;;;;;;24.47;9.17;;;;;;;;;;10282263;28;20049;-81
2023/12/22 12:26:57;;;;;;;24.57;10.50;;;;;;;;;;10285411;28;20043;-82
2023/12/22 12:32:07;;;;;;;21.17;9.63;;;;;;;;;;10279783;28;20113;-78
2023/12/22 12:37:08;;;;;;;22.23;8.53;;;;;;;;;;10277895;28;20035;-82
2023/12/22 12:42:12;;;;;;;39.17;14.80;;;;;;;;;;10285134;28;20372;-79
2023/12/22 12:47:13;;;;;;;36.13;11.77;;;;;;;;;;10282941;28;20038;-81
2023/12/22 12:52:21;;;;;;;35.60;12.17;;;;;;;;;;10288603;28;20112;-79
2023/12/22 12:57:22;;;;;;;32.07;11.83;;;;;;;;;;10279484;28;20589;-81
2023/12/22 13:02:23;;;;;;;16.47;6.43;;;;;;;;;;10276768;28;20057;-78
2023/12/22 13:07:25;;;;;;;6.97;2.20;;;;;;;;;;10275701;28;20106;-82
2023/12/22 13:12:36;;;;;;;8.50;3.07;;;;;;;;;;10260586;28;20130;-81
2023/12/22 13:17:37;;;;;;;21.63;7.80;;;;;;;;;;10276477;28;20035;-83
2023/12/22 13:22:38;;;;;;;17.10;6.30;;;;;;;;;;10276801;28;20039;-81
2023/12/22 13:27:46;;;;;;;21.40;5.67;;;;;;;;;;10284746;28;20019;-80
2023/12/22 13:32:48;;;;;;;12.50;4.87;;;;;;;;;;10279577;28;20031;-81
2023/12/22 13:37:49;;;;;;;15.03;4.83;;;;;;;;;;10282602;28;20081;-81
2023/12/22 13:43:02;;;;;;;12.90;4.23;;;;;;;;;;10280614;28;20046;-83
2023/12/22 13:48:04;;;;;;;8.53;2.40;;;;;;;;;;10273812;28;20035;-80
2023/12/22 13:53:09;;;;;;;7.13;3.40;;;;;;;;;;10282736;28;20054;-80
2023/12/22 13:58:12;;;;;;;16.23;4.03;;;;;;;;;;10268678;28;20391;-79
2023/12/22 14:03:13;;;;;;;13.60;4.63;;;;;;;;;;10277575;28;20154;-80
2023/12/22 14:08:14;;;;;;;19.80;5.00;;;;;;;;;;10260149;28;20031;-80
2023/12/22 14:13:15;;;;;;;12.60;4.93;;;;;;;;;;10280729;28;20027;-83
2023/12/22 14:18:16;;;;;;;15.00;4.53;;;;;;;;;;10280277;28;20143;-81
2023/12/22 14:23:17;;;;;;;9.40;4.00;;;;;;;;;;10272574;28;20134;-80
2023/12/22 14:28:19;;;;;;;28.20;9.33;;;;;;;;;;10285671;28;20035;-80
2023/12/22 14:33:26;;;;;;;26.87;10.70;;;;;;;;;;10287348;28;20065;-80
2023/12/22 14:38:27;;;;;;;13.67;4.00;;;;;;;;;;10290471;28;20499;-84
2023/12/22 14:43:28;;;;;;;22.30;7.93;;;;;;;;;;10288353;28;20073;-80
2023/12/22 14:48:29;;;;;;;32.03;10.73;;;;;;;;;;10290375;28;20035;-81
2023/12/22 14:53:30;;;;;;;39.90;12.63;;;;;;;;;;10282908;28;20113;-80
2023/12/22 14:58:33;;;;;;;25.37;7.80;;;;;;;;;;10290080;28;20133;-81
2023/12/22 15:03:34;;;;;;;43.57;11.77;;;;;;;;;;10279743;28;20458;-79
2023/12/22 15:08:35;;;;;;;28.20;10.10;;;;;;;;;;10281689;28;20034;-81
2023/12/22 15:13:36;;;;;;;38.57;14.50;;;;;;;;;;10273654;28;20415;-80
2023/12/22 15:18:37;;;;;;;40.87;13.83;;;;;;;;;;10281967;28;20034;-80
2023/12/22 15:23:40;;;;;;;40.13;14.57;;;;;;;;;;10297783;28;20066;-80
2023/12/22 15:28:41;;;;;;;59.37;18.93;;;;;;;;;;10284158;28;20039;-79
2023/12/22 15:33:42;;;;;;;29.80;9.37;;;;;;;;;;10288768;28;20832;-80
2023/12/22 15:38:43;;;;;;;29.40;10.67;;;;;;;;;;10287811;28;20422;-80
2023/12/22 15:43:44;;;;;;;37.00;12.07;;;;;;;;;;10288930;28;20031;-81
2023/12/22 15:48:47;;;;;;;48.27;13.43;;;;;;;;;;10288613;28;20026;-81
2023/12/22 15:53:48;;;;;;;55.57;17.50;;;;;;;;;;10281244;28;20084;-83
2023/12/22 15:58:49;;;;;;;25.40;7.57;;;;;;;;;;10280790;28;20043;-82
2023/12/22 16:03:52;;;;;;;36.70;10.93;;;;;;;;;;10286868;28;20054;-81
2023/12/22 16:08:53;;;;;;;39.87;13.83;;;;;;;;;;10281250;28;20056;-82
2023/12/22 16:13:57;;;;;;;25.57;7.80;;;;;;;;;;10293170;28;20549;-80
2023/12/22 16:18:58;;;;;;;26.67;9.73;;;;;;;;;;10283820;28;20371;-80
2023/12/22 16:23:59;;;;;;;19.93;7.43;;;;;;;;;;10292054;28;20038;-84
2023/12/22 16:29:02;;;;;;;25.73;7.97;;;;;;;;;;10273940;28;20031;-80
2023/12/22 16:34:03;;;;;;;21.73;7.03;;;;;;;;;;10288123;28;20041;-79
2023/12/22 16:39:04;;;;;;;24.70;8.20;;;;;;;;;;10291481;28;20421;-80
2023/12/22 16:44:05;;;;;;;15.17;6.00;;;;;;;;;;10283925;28;20061;-83
2023/12/22 16:49:07;;;;;;;16.83;7.10;;;;;;;;;;10282698;28;20039;-80
2023/12/22 16:54:08;;;;;;;19.47;6.53;;;;;;;;;;10283708;28;20061;-80
2023/12/22 16:59:10;;;;;;;21.77;7.23;;;;;;;;;;10280805;28;20101;-83
2023/12/22 17:04:12;;;;;;;17.17;6.53;;;;;;;;;;10276359;28;20069;-80
2023/12/22 17:09:13;;;;;;;25.33;8.57;;;;;;;;;;10273621;28;20031;-83
2023/12/22 17:14:15;;;;;;;12.37;5.67;;;;;;;;;;10280585;28;20438;-83
2023/12/22 17:19:16;;;;;;;19.00;7.17;;;;;;;;;;10280779;28;20050;-80
2023/12/22 17:24:16;;;;;;;16.07;5.87;;;;;;;;;;10286320;28;20406;-83
2023/12/22 17:29:18;;;;;;;22.03;8.60;;;;;;;;;;10283410;28;20089;-79
2023/12/22 17:34:19;;;;;;;12.30;4.07;;;;;;;;;;10255749;28;20422;-81
2023/12/22 17:39:27;;;;;;;10.27;3.80;;;;;;;;;;10293438;28;20101;-79
2023/12/22 17:44:28;;;;;;;18.53;7.97;;;;;;;;;;10280749;28;20086;-80
2023/12/22 17:49:36;;;;;;;16.30;5.53;;;;;;;;;;10278081;28;20034;-80
2023/12/22 17:54:37;;;;;;;13.73;5.00;;;;;;;;;;10284133;28;20391;-78
2023/12/22 17:59:40;;;;;;;16.73;6.63;;;;;;;;;;10285338;28;20043;-78
2023/12/22 18:04:41;;;;;;;25.17;7.63;;;;;;;;;;10281440;28;20038;-79
2023/12/22 18:09:42;;;;;;;16.57;6.43;;;;;;;;;;10277793;28;20773;-78
2023/12/22 18:14:44;;;;;;;20.80;7.30;;;;;;;;;;10280678;28;20030;-78
2023/12/22 18:19:45;;;;;;;17.43;6.90;;;;;;;;;;10289898;28;20042;-78
2023/12/22 18:24:53;;;;;;;18.93;6.80;;;;;;;;;;10286904;28;20109;-77
2023/12/22 18:29:54;;;;;;;18.93;6.90;;;;;;;;;;10284006;28;20110;-78
2023/12/22 18:34:55;;;;;;;24.23;7.60;;;;;;;;;;10284478;28;20152;-78
2023/12/22 18:39:56;;;;;;;33.07;10.57;;;;;;;;;;10286673;28;20088;-79
2023/12/22 18:44:58;;;;;;;32.43;11.80;;;;;;;;;;10283113;28;20097;-78
2023/12/22 18:49:59;;;;;;;32.40;12.30;;;;;;;;;;10268255;28;20043;-79
2023/12/22 18:55:00;;;;;;;22.40;7.60;;;;;;;;;;10286416;28;20062;-80
2023/12/22 19:00:01;;;;;;;20.93;7.97;;;;;;;;;;10284661;28;20366;-79
2023/12/22 19:05:09;;;;;;;29.63;10.07;;;;;;;;;;10268381;28;20035;-79
2023/12/22 19:10:10;;;;;;;26.07;7.80;;;;;;;;;;10278958;28;20117;-80
2023/12/22 19:15:11;;;;;;;20.77;7.27;;;;;;;;;;10280712;28;20035;-80
2023/12/22 19:20:13;;;;;;;18.73;4.77;;;;;;;;;;10289018;28;20039;-81
2023/12/22 19:25:14;;;;;;;18.53;7.43;;;;;;;;;;10292120;28;20049;-79
2023/12/22 19:30:15;;;;;;;40.73;13.30;;;;;;;;;;10287992;28;20038;-79
2023/12/22 19:35:16;;;;;;;27.77;10.20;;;;;;;;;;10285366;28;20031;-80
2023/12/22 19:40:17;;;;;;;23.57;8.27;;;;;;;;;;10288501;28;20038;-82
2023/12/22 19:45:19;;;;;;;34.30;11.03;;;;;;;;;;10290744;28;20088;-82
2023/12/22 19:50:20;;;;;;;36.00;11.40;;;;;;;;;;10275663;28;20117;-79
2023/12/22 19:55:21;;;;;;;25.17;8.07;;;;;;;;;;10288280;28;20116;-80
2023/12/22 20:00:22;;;;;;;29.97;10.17;;;;;;;;;;10282750;28;20046;-81
2023/12/22 20:05:23;;;;;;;29.00;9.40;;;;;;;;;;10288503;28;20039;-81
2023/12/22 20:10:24;;;;;;;25.37;9.47;;;;;;;;;;10276493;28;20030;-81
2023/12/22 20:15:26;;;;;;;22.23;8.60;;;;;;;;;;10285988;28;20035;-79
2023/12/22 20:20:27;;;;;;;27.73;10.57;;;;;;;;;;10293963;28;20050;-80
2023/12/22 20:25:30;;;;;;;22.70;8.30;;;;;;;;;;10285200;28;20054;-78
2023/12/22 20:30:31;;;;;;;23.40;8.93;;;;;;;;;;10282008;28;20030;-79
2023/12/22 20:35:33;;;;;;;21.93;6.67;;;;;;;;;;10291111;28;20446;-79
2023/12/22 20:40:34;;;;;;;21.87;7.27;;;;;;;;;;10288378;28;20065;-82
2023/12/22 20:45:35;;;;;;;30.43;9.93;;;;;;;;;;10272745;28;20462;-81
2023/12/22 20:50:43;;;;;;;23.33;8.47;;;;;;;;;;10287532;28;20054;-79
2023/12/22 20:55:51;;;;;;;20.43;8.17;;;;;;;;;;10290370;28;20117;-78
2023/12/22 21:00:52;;;;;;;22.70;8.20;;;;;;;;;;10290866;28;20030;-81
2023/12/22 21:05:54;;;;;;;24.10;8.90;;;;;;;;;;10289119;28;20036;-79
2023/12/22 21:10:55;;;;;;;29.63;10.33;;;;;;;;;;10291860;28;20031;-79
2023/12/22 21:15:56;;;;;;;26.30;8.20;;;;;;;;;;10282825;28;20043;-79
2023/12/22 21:20:57;;;;;;;26.00;8.47;;;;;;;;;;10265831;28;20490;-80
2023/12/22 21:26:04;;;;;;;20.53;7.43;;;;;;;;;;10292903;28;20123;-80
2023/12/22 21:31:10;;;;;;;17.40;5.60;;;;;;;;;;10268945;28;20105;-79
2023/12/22 21:36:19;;;;;;;14.10;4.80;;;;;;;;;;10283001;28;20034;-79
2023/12/22 21:41:21;;;;;;;14.20;5.33;;;;;;;;;;10284399;28;20038;-82
2023/12/22 21:46:23;;;;;;;12.77;4.20;;;;;;;;;;10290555;28;20034;-80
2023/12/22 21:51:25;;;;;;;12.50;4.57;;;;;;;;;;10286263;28;20039;-80
2023/12/22 21:56:26;;;;;;;13.63;4.70;;;;;;;;;;10284261;28;20082;-82
2023/12/22 22:01:27;;;;;;;12.37;3.70;;;;;;;;;;10283586;28;20097;-82
2023/12/22 22:06:28;;;;;;;12.87;5.27;;;;;;;;;;10287197;28;20121;-80
2023/12/22 22:11:29;;;;;;;15.50;5.37;;;;;;;;;;10286570;28;20129;-80
2023/12/22 22:16:30;;;;;;;16.63;5.43;;;;;;;;;;10280249;28;20035;-82
2023/12/22 22:21:31;;;;;;;15.50;5.03;;;;;;;;;;10285298;28;20480;-81
2023/12/22 22:26:32;;;;;;;15.83;5.23;;;;;;;;;;10283682;28;20105;-79
2023/12/22 22:31:33;;;;;;;14.87;4.73;;;;;;;;;;10284429;28;20031;-81
2023/12/22 22:36:35;;;;;;;11.30;4.57;;;;;;;;;;10284682;28;20471;-79
2023/12/22 22:41:36;;;;;;;13.43;4.60;;;;;;;;;;10266591;28;20046;-79
2023/12/22 22:46:37;;;;;;;14.60;4.70;;;;;;;;;;10295068;28;20604;-79
2023/12/22 22:51:38;;;;;;;16.73;5.57;;;;;;;;;;10292700;28;20435;-79
2023/12/22 22:56:40;;;;;;;16.33;5.00;;;;;;;;;;10290157;28;20077;-79
2023/12/22 23:01:40;;;;;;;14.67;5.37;;;;;;;;;;10290554;28;20501;-79
2023/12/22 23:06:41;;;;;;;15.33;4.90;;;;;;;;;;10290432;28;20038;-79
2023/12/22 23:11:43;;;;;;;10.93;4.00;;;;;;;;;;10289623;28;20042;-80
2023/12/22 23:16:43;;;;;;;12.47;4.57;;;;;;;;;;10289494;28;20109;-80
2023/12/22 23:21:44;;;;;;;12.23;4.97;;;;;;;;;;10289292;28;19926;-79
2023/12/22 23:26:45;;;;;;;11.80;3.77;;;;;;;;;;10297442;28;20042;-79
2023/12/22 23:31:46;;;;;;;12.00;3.40;;;;;;;;;;10288244;28;20050;-79
2023/12/22 23:36:48;;;;;;;10.40;3.77;;;;;;;;;;10290052;28;20049;-80
2023/12/22 23:41:49;;;;;;;16.00;2.93;;;;;;;;;;10289598;28;20038;-81
2023/12/22 23:46:49;;;;;;;8.57;3.13;;;;;;;;;;10288884;28;20475;-82
2023/12/22 23:51:57;;;;;;;10.97;2.30;;;;;;;;;;10288768;28;20050;-80
2023/12/22 23:56:58;;;;;;;11.27;3.10;;;;;;;;;;10288061;28;20141;-79
